createdAt,value
2023-03-19T00:02:51.402Z,15.27
2023-03-19T00:08:53.542Z,12.75
2023-03-19T00:14:55.404Z,6.88
2023-03-19T00:20:57.175Z,4.35
2023-03-19T00:26:59.042Z,3.72
2023-03-19T00:33:01.374Z,3.60
2023-03-19T00:39:04.192Z,3.10
2023-03-19T00:45:06.904Z,3.03
2023-03-19T00:51:10.944Z,2.65
2023-03-19T00:57:12.706Z,2.97
2023-03-19T01:03:21.361Z,2.65
2023-03-19T01:09:23.451Z,2.80
2023-03-19T01:15:25.381Z,2.90
2023-03-19T01:21:30.908Z,8.95
2023-03-19T01:27:32.886Z,7.70
2023-03-19T01:33:34.917Z,9.30
2023-03-19T01:39:37.274Z,2.80
2023-03-19T01:45:41.529Z,3.05
2023-03-19T01:51:46.254Z,2.53
2023-03-19T01:57:48.682Z,2.55
2023-03-19T02:03:53.681Z,2.25
2023-03-19T02:09:55.707Z,2.42
2023-03-19T02:15:58.268Z,2.65
2023-03-19T02:22:01.572Z,2.30
2023-03-19T02:28:04.019Z,2.30
2023-03-19T02:34:23.892Z,2.13
2023-03-19T02:40:33.329Z,2.20
2023-03-19T02:46:35.451Z,2.85
2023-03-19T02:52:38.879Z,2.47
2023-03-19T02:58:40.671Z,2.28
2023-03-19T03:04:42.820Z,2.47
2023-03-19T03:10:44.639Z,2.15
2023-03-19T03:16:46.783Z,2.53
2023-03-19T03:22:48.592Z,3.28
2023-03-19T03:28:50.742Z,3.80
2023-03-19T03:34:52.855Z,4.13
2023-03-19T03:41:04.843Z,3.13
2023-03-19T03:47:06.833Z,2.42
2023-03-19T03:53:17.863Z,2.40
2023-03-19T03:59:22.767Z,1.83
2023-03-19T04:05:24.587Z,1.90
2023-03-19T04:11:29.711Z,1.60
2023-03-19T04:17:31.987Z,1.55
2023-03-19T04:23:33.955Z,2.38
2023-03-19T04:29:35.801Z,1.88
2023-03-19T04:35:37.724Z,2.00
2023-03-19T04:41:40.156Z,2.38
2023-03-19T04:47:44.984Z,2.35
2023-03-19T05:00:28.686Z,2.63
2023-03-19T05:06:32.915Z,4.55
2023-03-19T05:12:35.637Z,4.53
2023-03-19T05:18:40.706Z,4.53
2023-03-19T05:24:43.027Z,4.07
2023-03-19T05:30:45.128Z,4.25
2023-03-19T05:36:47.218Z,4.70
2023-03-19T05:42:52.088Z,4.22
2023-03-19T05:48:58.724Z,3.92
2023-03-19T05:55:18.613Z,3.30
2023-03-19T06:01:24.591Z,2.28
2023-03-19T06:07:27.395Z,2.92
2023-03-19T06:13:32.627Z,2.60
2023-03-19T06:19:35.341Z,2.60
2023-03-19T06:25:37.957Z,2.42
2023-03-19T06:31:41.733Z,2.78
2023-03-19T06:37:43.917Z,2.60
2023-03-19T06:58:42.548Z,2.55
2023-03-19T07:04:44.642Z,2.30
2023-03-19T07:10:46.985Z,3.08
2023-03-19T07:16:49.000Z,2.78
2023-03-19T07:22:52.195Z,2.58
2023-03-19T07:28:54.139Z,2.25
2023-03-19T07:34:56.210Z,2.60
2023-03-19T07:41:02.368Z,2.40
2023-03-19T07:47:04.705Z,2.10
2023-03-19T07:53:06.578Z,2.40
2023-03-19T07:59:08.578Z,2.42
2023-03-19T08:05:11.094Z,1.98
2023-03-19T08:11:13.427Z,2.00
2023-03-19T08:17:15.200Z,2.10
2023-03-19T08:23:17.131Z,1.63
2023-03-19T08:29:19.293Z,1.90
2023-03-19T08:35:21.364Z,2.10
2023-03-19T08:41:26.244Z,1.83
2023-03-19T08:47:28.486Z,1.83
2023-03-19T08:53:32.126Z,2.20
2023-03-19T08:59:34.464Z,2.30
2023-03-19T09:05:36.342Z,2.17
2023-03-19T09:11:38.325Z,2.50
2023-03-19T09:17:40.439Z,2.70
2023-03-19T09:23:42.370Z,3.13
2023-03-19T09:29:44.141Z,2.65
2023-03-19T09:35:52.602Z,2.58
2023-03-19T09:42:06.018Z,2.70
2023-03-19T09:48:14.857Z,2.55
2023-03-19T09:54:27.481Z,2.42
2023-03-19T10:00:34.086Z,2.95
2023-03-19T10:06:40.232Z,3.05
2023-03-19T10:13:00.418Z,3.25
2023-03-19T10:19:05.824Z,2.85
2023-03-19T10:25:13.325Z,3.55
2023-03-19T10:31:30.464Z,3.97
2023-03-19T10:37:35.753Z,3.00
2023-03-19T10:43:39.731Z,3.50
2023-03-19T10:49:42.688Z,3.70
2023-03-19T10:55:53.661Z,3.53
2023-03-19T11:02:03.954Z,3.47
2023-03-19T11:08:25.736Z,3.80
2023-03-19T11:14:39.950Z,5.28
2023-03-19T11:20:42.363Z,5.57
2023-03-19T11:26:54.132Z,3.42
2023-03-19T11:33:12.732Z,3.47
2023-03-19T11:39:23.467Z,3.75
2023-03-19T11:45:46.028Z,3.35
2023-03-19T11:52:03.093Z,5.78
2023-03-19T11:58:29.700Z,6.88
2023-03-19T12:05:09.189Z,3.50
2023-03-19T12:11:17.917Z,3.15
2023-03-19T12:17:34.742Z,3.13
2023-03-19T12:23:58.971Z,3.30
2023-03-19T12:30:18.480Z,3.80
2023-03-19T12:36:25.654Z,44.60
2023-03-19T12:42:33.078Z,3.65
2023-03-19T12:49:14.312Z,3.03
2023-03-19T12:55:16.063Z,2.60
2023-03-19T13:01:26.096Z,3.05
2023-03-19T13:07:43.999Z,2.90
2023-03-19T13:13:51.575Z,3.60
2023-03-19T13:19:56.379Z,2.80
2023-03-19T13:26:00.285Z,3.72
2023-03-19T13:32:06.905Z,3.25
2023-03-19T13:38:22.658Z,3.30
2023-03-19T13:44:33.970Z,3.30
2023-03-19T13:50:55.603Z,3.42
2023-03-19T13:57:07.747Z,3.60
2023-03-19T14:03:27.540Z,3.75
2023-03-19T14:09:37.759Z,4.50
2023-03-19T14:15:47.910Z,4.07
2023-03-19T14:21:52.514Z,4.85
2023-03-19T14:28:01.050Z,3.78
2023-03-19T14:34:17.061Z,3.60
2023-03-19T14:40:26.075Z,4.03
2023-03-19T14:46:45.170Z,4.85
2023-03-19T14:53:08.310Z,6.25
2023-03-19T14:59:13.882Z,6.53
2023-03-19T15:05:33.204Z,7.13
2023-03-19T15:11:54.093Z,6.28
2023-03-19T15:18:04.296Z,5.72
2023-03-19T15:24:13.466Z,5.95
2023-03-19T15:30:24.845Z,5.32
2023-03-19T15:36:33.355Z,5.63
2023-03-19T15:42:35.747Z,5.32
2023-03-19T15:49:13.016Z,5.38
2023-03-19T15:55:16.420Z,5.22
2023-03-19T16:01:19.865Z,6.03
2023-03-19T16:07:28.995Z,5.70
2023-03-19T16:13:37.945Z,4.90
2023-03-19T16:19:56.053Z,4.93
2023-03-19T16:26:03.421Z,4.20
2023-03-19T16:32:29.711Z,5.05
2023-03-19T16:38:59.709Z,5.75
2023-03-19T16:45:20.382Z,5.70
2023-03-19T16:51:22.425Z,7.28
2023-03-19T16:57:24.608Z,7.35
2023-03-19T17:03:27.325Z,7.57
2023-03-19T17:09:29.195Z,7.75
2023-03-19T17:15:37.563Z,8.18
2023-03-19T17:21:39.592Z,8.88
2023-03-19T17:27:42.054Z,8.73
2023-03-19T17:33:43.995Z,9.32
2023-03-19T17:39:46.258Z,8.50
2023-03-19T17:45:49.348Z,9.50
2023-03-19T17:51:52.351Z,8.93
2023-03-19T17:57:54.935Z,9.13
2023-03-19T18:03:58.269Z,8.48
2023-03-19T18:10:00.177Z,7.82
2023-03-19T18:16:03.359Z,6.70
2023-03-19T18:22:14.845Z,6.95
2023-03-19T18:28:16.653Z,6.45
2023-03-19T18:34:18.795Z,6.20
2023-03-19T18:40:24.206Z,6.50
2023-03-19T18:46:31.436Z,7.10
2023-03-19T18:52:33.528Z,7.28
2023-03-19T18:58:38.033Z,8.00
2023-03-19T19:04:40.122Z,9.00
2023-03-19T19:10:45.908Z,9.43
2023-03-19T19:16:48.211Z,9.20
2023-03-19T19:22:51.793Z,9.25
2023-03-19T19:28:57.868Z,9.60
2023-03-19T19:34:59.811Z,9.65
2023-03-19T19:41:01.716Z,10.38
2023-03-19T19:47:13.288Z,10.27
2023-03-19T19:53:16.405Z,10.23
2023-03-19T19:59:22.617Z,11.23
2023-03-19T20:05:31.166Z,12.40
2023-03-19T20:11:33.064Z,12.00
2023-03-19T20:17:34.808Z,12.65
2023-03-19T20:23:36.776Z,12.68
2023-03-19T20:29:40.038Z,13.57
2023-03-19T20:35:42.270Z,14.35
2023-03-19T20:41:45.560Z,14.45
2023-03-19T20:47:48.573Z,14.13
2023-03-19T20:53:52.074Z,15.27
2023-03-19T20:59:54.250Z,14.07
2023-03-19T21:06:02.053Z,13.73
2023-03-19T21:12:09.583Z,14.65
2023-03-19T21:18:11.581Z,13.88
2023-03-19T21:24:21.055Z,12.52
2023-03-19T21:30:23.124Z,12.70
2023-03-19T21:36:25.083Z,12.77
2023-03-19T21:42:27.696Z,14.73
2023-03-19T21:48:30.557Z,15.65
2023-03-19T21:54:32.482Z,15.95
2023-03-19T22:00:34.454Z,16.17
2023-03-19T22:06:37.005Z,16.75
2023-03-19T22:12:45.169Z,16.40
2023-03-19T22:18:47.994Z,17.50
2023-03-19T22:24:50.060Z,16.88
2023-03-19T22:30:52.004Z,17.17
2023-03-19T22:36:54.913Z,19.25
2023-03-19T22:42:56.792Z,18.02
2023-03-19T22:48:58.685Z,18.45
2023-03-19T22:55:00.437Z,18.98
2023-03-19T23:01:02.331Z,18.40
2023-03-19T23:07:04.316Z,18.45
2023-03-19T23:13:06.168Z,17.95
2023-03-19T23:19:32.021Z,18.65
2023-03-19T23:25:34.107Z,17.40
2023-03-19T23:31:36.782Z,19.33
2023-03-19T23:37:39.316Z,19.85
2023-03-19T23:43:41.612Z,19.35
2023-03-19T23:49:43.437Z,18.88
2023-03-19T23:55:47.168Z,19.65
